sensor_id;sensor_type;location;lat;lon;timestamp;pressure;altitude;pressure_sealevel;temperature;humidity
11099;BME280;12223;42.650;23.364;2023-02-11T00:01:34;96402.16;;;-2.52;82.14
11099;BME280;12223;42.650;23.364;2023-02-11T00:04:05;96402.69;;;-2.47;81.10
11099;BME280;12223;42.650;23.364;2023-02-11T00:06:33;96394.88;;;-2.20;79.03
11099;BME280;12223;42.650;23.364;2023-02-11T00:09:00;96408.69;;;-2.46;78.77
11099;BME280;12223;42.650;23.364;2023-02-11T00:11:27;96391.53;;;-2.87;79.42
11099;BME280;12223;42.650;23.364;2023-02-11T00:13:55;96394.06;;;-2.72;79.92
11099;BME280;12223;42.650;23.364;2023-02-11T00:16:23;96401.09;;;-2.35;79.12
11099;BME280;12223;42.650;23.364;2023-02-11T00:18:49;96407.75;;;-2.58;78.16
11099;BME280;12223;42.650;23.364;2023-02-11T00:21:20;96394.84;;;-2.45;78.88
11099;BME280;12223;42.650;23.364;2023-02-11T00:23:47;96403.22;;;-2.81;78.30
11099;BME280;12223;42.650;23.364;2023-02-11T00:26:16;96408.56;;;-2.57;79.09
11099;BME280;12223;42.650;23.364;2023-02-11T00:28:44;96401.66;;;-2.57;78.71
11099;BME280;12223;42.650;23.364;2023-02-11T00:31:12;96399.28;;;-2.60;79.71
11099;BME280;12223;42.650;23.364;2023-02-11T00:33:40;96399.16;;;-2.58;79.48
11099;BME280;12223;42.650;23.364;2023-02-11T00:36:10;96394.22;;;-2.49;78.77
11099;BME280;12223;42.650;23.364;2023-02-11T00:38:43;96393.50;;;-2.77;79.27
11099;BME280;12223;42.650;23.364;2023-02-11T00:41:10;96397.25;;;-2.69;78.76
11099;BME280;12223;42.650;23.364;2023-02-11T00:43:37;96393.81;;;-2.42;77.56
11099;BME280;12223;42.650;23.364;2023-02-11T00:46:04;96398.94;;;-2.68;77.03
11099;BME280;12223;42.650;23.364;2023-02-11T00:48:31;96388.53;;;-2.54;77.40
11099;BME280;12223;42.650;23.364;2023-02-11T00:50:59;96392.97;;;-2.56;77.05
11099;BME280;12223;42.650;23.364;2023-02-11T00:53:26;96391.22;;;-2.42;77.09
11099;BME280;12223;42.650;23.364;2023-02-11T00:55:54;96388.09;;;-2.60;75.97
11099;BME280;12223;42.650;23.364;2023-02-11T00:58:21;96379.09;;;-2.55;76.16
11099;BME280;12223;42.650;23.364;2023-02-11T01:00:48;96375.59;;;-2.54;75.91
11099;BME280;12223;42.650;23.364;2023-02-11T01:03:15;96376.81;;;-2.59;75.51
11099;BME280;12223;42.650;23.364;2023-02-11T01:05:41;96381.78;;;-2.56;74.65
11099;BME280;12223;42.650;23.364;2023-02-11T01:08:08;96384.28;;;-2.81;75.75
11099;BME280;12223;42.650;23.364;2023-02-11T01:10:35;96382.97;;;-2.74;76.41
11099;BME280;12223;42.650;23.364;2023-02-11T01:13:03;96371.66;;;-2.59;75.85
11099;BME280;12223;42.650;23.364;2023-02-11T01:15:32;96373.03;;;-2.80;74.52
11099;BME280;12223;42.650;23.364;2023-02-11T01:17:59;96375.97;;;-2.72;74.68
11099;BME280;12223;42.650;23.364;2023-02-11T01:20:26;96377.94;;;-2.90;75.08
11099;BME280;12223;42.650;23.364;2023-02-11T01:22:54;96372.94;;;-3.06;75.96
11099;BME280;12223;42.650;23.364;2023-02-11T01:25:33;96372.34;;;-2.97;76.86
11099;BME280;12223;42.650;23.364;2023-02-11T01:28:00;96377.06;;;-3.03;76.45
11099;BME280;12223;42.650;23.364;2023-02-11T01:30:28;96374.47;;;-3.03;77.92
11099;BME280;12223;42.650;23.364;2023-02-11T01:32:54;96369.63;;;-3.08;76.99
11099;BME280;12223;42.650;23.364;2023-02-11T01:35:21;96369.00;;;-3.67;78.17
11099;BME280;12223;42.650;23.364;2023-02-11T01:37:48;96374.50;;;-3.44;78.88
11099;BME280;12223;42.650;23.364;2023-02-11T01:40:16;96364.66;;;-3.52;79.39
11099;BME280;12223;42.650;23.364;2023-02-11T01:42:43;96369.50;;;-3.33;79.83
11099;BME280;12223;42.650;23.364;2023-02-11T01:48:30;96354.84;;;-3.33;78.67
11099;BME280;12223;42.650;23.364;2023-02-11T01:51:02;96364.72;;;-3.39;78.16
11099;BME280;12223;42.650;23.364;2023-02-11T01:53:31;96354.69;;;-3.58;78.60
11099;BME280;12223;42.650;23.364;2023-02-11T01:56:16;96367.72;;;-3.88;81.04
11099;BME280;12223;42.650;23.364;2023-02-11T01:59:04;96366.91;;;-4.02;83.75
11099;BME280;12223;42.650;23.364;2023-02-11T02:01:33;96348.72;;;-3.73;84.48
11099;BME280;12223;42.650;23.364;2023-02-11T02:04:04;96370.09;;;-3.56;83.12
11099;BME280;12223;42.650;23.364;2023-02-11T02:06:33;96362.91;;;-3.51;83.44
11099;BME280;12223;42.650;23.364;2023-02-11T02:09:04;96361.44;;;-3.70;82.53
11099;BME280;12223;42.650;23.364;2023-02-11T02:11:33;96366.06;;;-3.60;83.62
11099;BME280;12223;42.650;23.364;2023-02-11T02:14:00;96365.22;;;-3.61;84.41
11099;BME280;12223;42.650;23.364;2023-02-11T02:16:31;96355.66;;;-3.73;83.39
11099;BME280;12223;42.650;23.364;2023-02-11T02:19:18;96357.50;;;-3.89;83.95
11099;BME280;12223;42.650;23.364;2023-02-11T02:25:03;96364.84;;;-3.55;81.48
11099;BME280;12223;42.650;23.364;2023-02-11T02:27:40;96369.38;;;-3.73;82.45
11099;BME280;12223;42.650;23.364;2023-02-11T02:30:43;96356.09;;;-3.67;82.57
11099;BME280;12223;42.650;23.364;2023-02-11T02:33:24;96357.66;;;-3.78;82.41
11099;BME280;12223;42.650;23.364;2023-02-11T02:36:06;96363.50;;;-3.75;82.78
11099;BME280;12223;42.650;23.364;2023-02-11T02:38:38;96358.88;;;-4.26;84.21
11099;BME280;12223;42.650;23.364;2023-02-11T02:41:09;96359.41;;;-4.21;86.73
11099;BME280;12223;42.650;23.364;2023-02-11T02:43:39;96366.41;;;-4.23;86.60
11099;BME280;12223;42.650;23.364;2023-02-11T02:46:15;96353.09;;;-3.87;85.57
11099;BME280;12223;42.650;23.364;2023-02-11T02:48:44;96354.91;;;-3.89;84.08
11099;BME280;12223;42.650;23.364;2023-02-11T02:51:24;96364.25;;;-3.87;82.81
11099;BME280;12223;42.650;23.364;2023-02-11T02:53:59;96355.84;;;-3.76;81.91
11099;BME280;12223;42.650;23.364;2023-02-11T02:56:38;96358.41;;;-3.76;82.19
11099;BME280;12223;42.650;23.364;2023-02-11T02:59:22;96365.88;;;-3.72;81.76
11099;BME280;12223;42.650;23.364;2023-02-11T03:01:59;96357.19;;;-4.27;82.45
11099;BME280;12223;42.650;23.364;2023-02-11T03:04:35;96372.31;;;-4.21;84.54
11099;BME280;12223;42.650;23.364;2023-02-11T03:07:08;96374.91;;;-3.79;84.10
11099;BME280;12223;42.650;23.364;2023-02-11T03:09:40;96366.81;;;-3.87;82.37
11099;BME280;12223;42.650;23.364;2023-02-11T03:12:10;96361.44;;;-3.98;83.15
11099;BME280;12223;42.650;23.364;2023-02-11T03:14:39;96360.44;;;-3.67;81.47
11099;BME280;12223;42.650;23.364;2023-02-11T03:17:07;96369.94;;;-3.82;81.80
11099;BME280;12223;42.650;23.364;2023-02-11T03:19:39;96365.31;;;-3.62;81.23
11099;BME280;12223;42.650;23.364;2023-02-11T03:22:11;96365.41;;;-3.64;80.60
11099;BME280;12223;42.650;23.364;2023-02-11T03:24:40;96367.53;;;-3.71;81.08
11099;BME280;12223;42.650;23.364;2023-02-11T03:27:11;96364.94;;;-3.71;80.16
11099;BME280;12223;42.650;23.364;2023-02-11T03:29:43;96364.41;;;-4.18;82.20
11099;BME280;12223;42.650;23.364;2023-02-11T03:32:19;96344.50;;;-4.02;83.22
11099;BME280;12223;42.650;23.364;2023-02-11T03:34:53;96361.53;;;-3.85;82.12
11099;BME280;12223;42.650;23.364;2023-02-11T03:37:24;96358.97;;;-3.71;81.87
11099;BME280;12223;42.650;23.364;2023-02-11T03:39:55;96361.16;;;-3.65;81.04
11099;BME280;12223;42.650;23.364;2023-02-11T03:42:25;96361.91;;;-3.77;80.54
11099;BME280;12223;42.650;23.364;2023-02-11T03:44:58;96364.13;;;-3.71;80.27
11099;BME280;12223;42.650;23.364;2023-02-11T03:47:27;96365.72;;;-4.11;83.15
11099;BME280;12223;42.650;23.364;2023-02-11T03:49:58;96363.56;;;-3.90;82.45
11099;BME280;12223;42.650;23.364;2023-02-11T03:52:27;96361.06;;;-3.92;82.58
11099;BME280;12223;42.650;23.364;2023-02-11T03:54:56;96347.00;;;-4.00;82.69
11099;BME280;12223;42.650;23.364;2023-02-11T03:57:23;96355.81;;;-4.05;84.46
11099;BME280;12223;42.650;23.364;2023-02-11T03:59:52;96344.41;;;-4.15;84.69
11099;BME280;12223;42.650;23.364;2023-02-11T04:02:19;96352.38;;;-4.48;86.96
11099;BME280;12223;42.650;23.364;2023-02-11T04:04:46;96347.66;;;-4.55;86.78
11099;BME280;12223;42.650;23.364;2023-02-11T04:07:15;96356.00;;;-4.50;88.77
11099;BME280;12223;42.650;23.364;2023-02-11T04:09:41;96359.31;;;-4.34;87.61
11099;BME280;12223;42.650;23.364;2023-02-11T04:12:10;96354.44;;;-4.10;86.79
11099;BME280;12223;42.650;23.364;2023-02-11T04:14:37;96343.94;;;-4.35;86.14
11099;BME280;12223;42.650;23.364;2023-02-11T04:17:04;96363.25;;;-4.42;85.68
11099;BME280;12223;42.650;23.364;2023-02-11T04:19:31;96366.06;;;-4.61;85.97
11099;BME280;12223;42.650;23.364;2023-02-11T04:21:58;96370.75;;;-4.68;88.00
11099;BME280;12223;42.650;23.364;2023-02-11T04:24:27;96351.34;;;-4.59;88.77
11099;BME280;12223;42.650;23.364;2023-02-11T04:26:54;96355.06;;;-4.35;88.56
11099;BME280;12223;42.650;23.364;2023-02-11T04:29:21;96315.66;;;-4.51;87.20
11099;BME280;12223;42.650;23.364;2023-02-11T04:31:48;96357.78;;;-4.66;87.11
11099;BME280;12223;42.650;23.364;2023-02-11T04:34:16;96355.97;;;-4.80;88.03
11099;BME280;12223;42.650;23.364;2023-02-11T04:36:43;96353.09;;;-4.90;90.74
11099;BME280;12223;42.650;23.364;2023-02-11T04:39:21;96348.72;;;-4.88;89.93
11099;BME280;12223;42.650;23.364;2023-02-11T04:41:50;96347.91;;;-5.04;92.41
11099;BME280;12223;42.650;23.364;2023-02-11T04:44:16;96348.50;;;-4.69;91.82
11099;BME280;12223;42.650;23.364;2023-02-11T04:46:43;96340.00;;;-4.71;91.75
11099;BME280;12223;42.650;23.364;2023-02-11T04:49:11;96348.72;;;-4.73;92.07
11099;BME280;12223;42.650;23.364;2023-02-11T04:51:38;96353.72;;;-4.70;92.93
11099;BME280;12223;42.650;23.364;2023-02-11T04:54:05;96352.75;;;-4.83;91.96
11099;BME280;12223;42.650;23.364;2023-02-11T04:56:33;96362.53;;;-5.04;91.92
11099;BME280;12223;42.650;23.364;2023-02-11T04:59:01;96356.69;;;-5.38;91.99
11099;BME280;12223;42.650;23.364;2023-02-11T05:01:28;96348.66;;;-5.17;92.92
11099;BME280;12223;42.650;23.364;2023-02-11T05:03:55;96349.44;;;-5.47;91.81
11099;BME280;12223;42.650;23.364;2023-02-11T05:06:23;96336.50;;;-5.45;93.26
11099;BME280;12223;42.650;23.364;2023-02-11T05:08:50;96339.72;;;-5.42;93.71
11099;BME280;12223;42.650;23.364;2023-02-11T05:11:20;96346.78;;;-5.30;92.74
11099;BME280;12223;42.650;23.364;2023-02-11T05:13:46;96342.19;;;-5.24;94.09
11099;BME280;12223;42.650;23.364;2023-02-11T05:16:15;96343.63;;;-5.35;93.78
11099;BME280;12223;42.650;23.364;2023-02-11T05:18:45;96345.78;;;-5.74;94.03
11099;BME280;12223;42.650;23.364;2023-02-11T05:21:16;96347.13;;;-5.83;94.34
11099;BME280;12223;42.650;23.364;2023-02-11T05:23:43;96333.25;;;-5.80;94.80
11099;BME280;12223;42.650;23.364;2023-02-11T05:26:10;96324.88;;;-5.52;95.82
11099;BME280;12223;42.650;23.364;2023-02-11T05:28:44;96337.09;;;-5.72;96.21
11099;BME280;12223;42.650;23.364;2023-02-11T05:31:11;96341.88;;;-5.50;96.42
11099;BME280;12223;42.650;23.364;2023-02-11T05:33:40;96356.56;;;-5.68;95.83
11099;BME280;12223;42.650;23.364;2023-02-11T05:36:09;96347.53;;;-5.75;96.05
11099;BME280;12223;42.650;23.364;2023-02-11T05:38:36;96343.56;;;-5.64;95.39
11099;BME280;12223;42.650;23.364;2023-02-11T05:41:05;96341.13;;;-5.68;94.31
11099;BME280;12223;42.650;23.364;2023-02-11T05:43:32;96346.47;;;-5.71;93.79
11099;BME280;12223;42.650;23.364;2023-02-11T05:46:01;96309.25;;;-5.81;93.98
11099;BME280;12223;42.650;23.364;2023-02-11T05:48:28;96343.47;;;-5.79;95.13
11099;BME280;12223;42.650;23.364;2023-02-11T05:50:57;96337.78;;;-5.22;94.66
11099;BME280;12223;42.650;23.364;2023-02-11T05:53:24;96339.19;;;-3.99;90.06
11099;BME280;12223;42.650;23.364;2023-02-11T05:55:50;96340.34;;;-2.81;81.35
11099;BME280;12223;42.650;23.364;2023-02-11T05:58:17;96341.00;;;-1.64;67.54
11099;BME280;12223;42.650;23.364;2023-02-11T06:00:44;96339.94;;;-0.54;60.26
11099;BME280;12223;42.650;23.364;2023-02-11T06:03:11;96338.91;;;0.28;54.36
11099;BME280;12223;42.650;23.364;2023-02-11T06:05:38;96343.09;;;1.28;50.42
11099;BME280;12223;42.650;23.364;2023-02-11T06:08:07;96340.53;;;2.11;47.29
11099;BME280;12223;42.650;23.364;2023-02-11T06:10:34;96334.38;;;2.42;45.34
11099;BME280;12223;42.650;23.364;2023-02-11T06:13:01;96340.06;;;2.67;44.44
11099;BME280;12223;42.650;23.364;2023-02-11T06:15:27;96338.97;;;3.19;43.88
11099;BME280;12223;42.650;23.364;2023-02-11T06:17:55;96337.47;;;3.64;43.42
11099;BME280;12223;42.650;23.364;2023-02-11T06:20:22;96339.78;;;3.96;41.85
11099;BME280;12223;42.650;23.364;2023-02-11T06:22:49;96336.25;;;4.34;41.23
11099;BME280;12223;42.650;23.364;2023-02-11T06:25:17;96332.13;;;5.14;40.07
11099;BME280;12223;42.650;23.364;2023-02-11T06:27:44;96333.44;;;6.50;37.87
11099;BME280;12223;42.650;23.364;2023-02-11T06:30:12;96335.47;;;8.21;35.38
11099;BME280;12223;42.650;23.364;2023-02-11T06:32:39;96336.75;;;9.36;32.52
11099;BME280;12223;42.650;23.364;2023-02-11T06:35:06;96326.94;;;10.13;31.05
11099;BME280;12223;42.650;23.364;2023-02-11T06:37:33;96325.97;;;10.51;29.36
11099;BME280;12223;42.650;23.364;2023-02-11T06:40:00;96323.22;;;11.18;29.30
11099;BME280;12223;42.650;23.364;2023-02-11T06:42:28;96319.59;;;10.60;28.48
11099;BME280;12223;42.650;23.364;2023-02-11T06:44:55;96333.81;;;10.59;28.26
11099;BME280;12223;42.650;23.364;2023-02-11T06:47:22;96333.44;;;10.62;28.11
11099;BME280;12223;42.650;23.364;2023-02-11T06:49:49;96335.44;;;11.19;27.36
11099;BME280;12223;42.650;23.364;2023-02-11T06:52:16;96335.59;;;10.44;28.07
11099;BME280;12223;42.650;23.364;2023-02-11T06:54:42;96327.50;;;10.08;28.91
11099;BME280;12223;42.650;23.364;2023-02-11T06:57:12;96330.22;;;9.54;29.22
11099;BME280;12223;42.650;23.364;2023-02-11T06:59:40;96343.75;;;9.74;29.81
11099;BME280;12223;42.650;23.364;2023-02-11T07:02:08;96340.97;;;10.13;29.04
11099;BME280;12223;42.650;23.364;2023-02-11T07:04:37;96338.00;;;10.98;28.38
11099;BME280;12223;42.650;23.364;2023-02-11T07:07:04;96333.91;;;10.95;27.96
11099;BME280;12223;42.650;23.364;2023-02-11T07:09:32;96321.00;;;11.36;27.80
11099;BME280;12223;42.650;23.364;2023-02-11T07:11:58;96333.22;;;12.71;26.93
11099;BME280;12223;42.650;23.364;2023-02-11T07:14:25;96322.63;;;13.53;25.80
11099;BME280;12223;42.650;23.364;2023-02-11T07:16:56;96319.69;;;14.62;24.59
11099;BME280;12223;42.650;23.364;2023-02-11T07:19:23;96324.31;;;15.63;23.92
11099;BME280;12223;42.650;23.364;2023-02-11T07:21:50;96317.34;;;16.00;23.12
11099;BME280;12223;42.650;23.364;2023-02-11T07:24:18;96313.44;;;16.03;23.18
11099;BME280;12223;42.650;23.364;2023-02-11T07:26:45;96311.22;;;15.93;23.68
11099;BME280;12223;42.650;23.364;2023-02-11T07:29:12;96309.09;;;15.26;23.36
11099;BME280;12223;42.650;23.364;2023-02-11T07:31:39;96312.38;;;13.37;24.74
11099;BME280;12223;42.650;23.364;2023-02-11T07:34:09;96302.22;;;12.37;25.92
11099;BME280;12223;42.650;23.364;2023-02-11T07:36:36;96319.44;;;11.27;27.25
11099;BME280;12223;42.650;23.364;2023-02-11T07:39:03;96313.81;;;9.36;28.75
11099;BME280;12223;42.650;23.364;2023-02-11T07:41:30;96305.03;;;7.86;31.10
11099;BME280;12223;42.650;23.364;2023-02-11T07:44:01;96311.41;;;7.27;32.56
11099;BME280;12223;42.650;23.364;2023-02-11T07:46:30;96308.13;;;7.25;32.98
11099;BME280;12223;42.650;23.364;2023-02-11T07:48:59;96294.94;;;7.01;32.74
11099;BME280;12223;42.650;23.364;2023-02-11T07:51:30;96276.91;;;7.46;33.39
11099;BME280;12223;42.650;23.364;2023-02-11T07:53:58;96306.22;;;7.84;33.63
11099;BME280;12223;42.650;23.364;2023-02-11T07:56:26;96300.84;;;9.57;31.00
11099;BME280;12223;42.650;23.364;2023-02-11T07:58:55;96295.09;;;10.37;29.29
11099;BME280;12223;42.650;23.364;2023-02-11T08:01:23;96293.22;;;11.11;28.49
11099;BME280;12223;42.650;23.364;2023-02-11T08:03:53;96292.69;;;8.27;30.70
11099;BME280;12223;42.650;23.364;2023-02-11T08:06:22;96292.63;;;10.35;28.95
11099;BME280;12223;42.650;23.364;2023-02-11T08:08:54;96280.56;;;11.42;27.58
11099;BME280;12223;42.650;23.364;2023-02-11T08:11:22;96277.06;;;12.55;26.70
11099;BME280;12223;42.650;23.364;2023-02-11T08:13:52;96289.22;;;11.00;27.41
11099;BME280;12223;42.650;23.364;2023-02-11T08:16:20;96281.44;;;10.48;27.05
11099;BME280;12223;42.650;23.364;2023-02-11T08:18:48;96291.41;;;6.76;31.90
11099;BME280;12223;42.650;23.364;2023-02-11T08:21:16;96295.34;;;4.88;35.92
11099;BME280;12223;42.650;23.364;2023-02-11T08:23:44;96289.69;;;4.01;37.68
11099;BME280;12223;42.650;23.364;2023-02-11T08:26:15;96308.78;;;2.67;40.55
11099;BME280;12223;42.650;23.364;2023-02-11T08:28:44;96311.13;;;1.37;42.74
11099;BME280;12223;42.650;23.364;2023-02-11T08:31:14;96307.97;;;1.75;43.99
11099;BME280;12223;42.650;23.364;2023-02-11T08:33:40;96304.59;;;0.79;44.60
11099;BME280;12223;42.650;23.364;2023-02-11T08:36:08;96306.34;;;1.84;45.74
11099;BME280;12223;42.650;23.364;2023-02-11T08:38:36;96304.88;;;3.11;43.34
11099;BME280;12223;42.650;23.364;2023-02-11T08:41:03;96310.34;;;2.89;42.43
11099;BME280;12223;42.650;23.364;2023-02-11T08:43:31;96301.72;;;3.17;42.87
11099;BME280;12223;42.650;23.364;2023-02-11T08:45:58;96297.19;;;3.19;42.66
11099;BME280;12223;42.650;23.364;2023-02-11T08:48:25;96295.47;;;1.99;42.89
11099;BME280;12223;42.650;23.364;2023-02-11T08:50:53;96299.47;;;1.20;45.39
11099;BME280;12223;42.650;23.364;2023-02-11T08:53:20;96314.63;;;1.15;46.46
11099;BME280;12223;42.650;23.364;2023-02-11T08:55:50;96309.25;;;1.28;46.57
11099;BME280;12223;42.650;23.364;2023-02-11T08:58:18;96305.84;;;1.90;46.75
11099;BME280;12223;42.650;23.364;2023-02-11T09:00:46;96297.66;;;1.94;45.68
11099;BME280;12223;42.650;23.364;2023-02-11T09:03:13;96308.59;;;1.15;47.23
11099;BME280;12223;42.650;23.364;2023-02-11T09:05:41;96298.56;;;1.63;47.31
11099;BME280;12223;42.650;23.364;2023-02-11T09:08:08;96295.41;;;1.90;47.61
11099;BME280;12223;42.650;23.364;2023-02-11T09:10:35;96302.38;;;2.10;47.26
11099;BME280;12223;42.650;23.364;2023-02-11T09:13:02;96273.94;;;1.97;47.01
11099;BME280;12223;42.650;23.364;2023-02-11T09:15:29;96292.97;;;2.19;46.09
11099;BME280;12223;42.650;23.364;2023-02-11T09:17:57;96289.88;;;2.34;47.33
11099;BME280;12223;42.650;23.364;2023-02-11T09:20:25;96285.75;;;1.50;47.08
11099;BME280;12223;42.650;23.364;2023-02-11T09:22:53;96285.66;;;0.88;49.96
11099;BME280;12223;42.650;23.364;2023-02-11T09:25:20;96270.53;;;0.17;51.55
11099;BME280;12223;42.650;23.364;2023-02-11T09:27:47;96290.13;;;0.21;52.92
11099;BME280;12223;42.650;23.364;2023-02-11T09:30:14;96284.78;;;0.56;52.89
11099;BME280;12223;42.650;23.364;2023-02-11T09:32:41;96275.97;;;1.11;52.34
11099;BME280;12223;42.650;23.364;2023-02-11T09:35:09;96264.16;;;1.39;50.26
11099;BME280;12223;42.650;23.364;2023-02-11T09:37:36;96281.22;;;1.52;49.25
11099;BME280;12223;42.650;23.364;2023-02-11T09:40:03;96266.53;;;0.78;49.28
11099;BME280;12223;42.650;23.364;2023-02-11T09:42:44;96265.41;;;0.49;50.02
11099;BME280;12223;42.650;23.364;2023-02-11T09:45:16;96260.03;;;0.18;50.43
11099;BME280;12223;42.650;23.364;2023-02-11T09:47:48;96255.84;;;0.92;50.61
11099;BME280;12223;42.650;23.364;2023-02-11T09:50:21;96262.31;;;1.50;49.21
11099;BME280;12223;42.650;23.364;2023-02-11T09:52:53;96252.94;;;1.89;48.24
11099;BME280;12223;42.650;23.364;2023-02-11T09:55:24;96228.88;;;2.07;46.69
11099;BME280;12223;42.650;23.364;2023-02-11T09:57:52;96241.19;;;2.45;46.31
11099;BME280;12223;42.650;23.364;2023-02-11T10:00:23;96198.53;;;2.46;46.52
11099;BME280;12223;42.650;23.364;2023-02-11T10:03:00;96232.03;;;2.79;45.56
11099;BME280;12223;42.650;23.364;2023-02-11T10:05:41;96229.19;;;2.23;44.31
11099;BME280;12223;42.650;23.364;2023-02-11T10:08:14;96225.13;;;2.39;45.77
11099;BME280;12223;42.650;23.364;2023-02-11T10:10:48;96211.13;;;2.40;45.63
11099;BME280;12223;42.650;23.364;2023-02-11T10:16:20;96213.47;;;2.34;45.26
11099;BME280;12223;42.650;23.364;2023-02-11T10:19:07;96187.66;;;2.31;45.05
11099;BME280;12223;42.650;23.364;2023-02-11T10:21:47;96198.25;;;2.68;45.61
11099;BME280;12223;42.650;23.364;2023-02-11T10:24:17;96192.50;;;2.93;44.84
11099;BME280;12223;42.650;23.364;2023-02-11T10:26:44;96177.13;;;3.00;43.65
11099;BME280;12223;42.650;23.364;2023-02-11T10:29:22;96157.91;;;2.81;42.36
11099;BME280;12223;42.650;23.364;2023-02-11T10:31:52;96173.72;;;1.71;42.33
11099;BME280;12223;42.650;23.364;2023-02-11T10:34:19;96162.84;;;1.87;42.65
11099;BME280;12223;42.650;23.364;2023-02-11T10:36:47;96156.78;;;1.77;43.19
11099;BME280;12223;42.650;23.364;2023-02-11T10:39:15;96146.50;;;1.45;43.65
11099;BME280;12223;42.650;23.364;2023-02-11T10:41:44;96135.00;;;1.87;43.71
11099;BME280;12223;42.650;23.364;2023-02-11T10:44:20;96135.84;;;1.97;43.78
11099;BME280;12223;42.650;23.364;2023-02-11T10:46:48;96127.78;;;2.00;42.53
11099;BME280;12223;42.650;23.364;2023-02-11T10:49:35;96121.09;;;2.27;42.03
11099;BME280;12223;42.650;23.364;2023-02-11T10:52:20;96117.94;;;2.23;42.87
11099;BME280;12223;42.650;23.364;2023-02-11T10:55:15;96115.22;;;2.63;40.45
11099;BME280;12223;42.650;23.364;2023-02-11T10:57:54;96101.91;;;2.76;41.59
11099;BME280;12223;42.650;23.364;2023-02-11T11:00:35;96104.06;;;3.00;41.50
11099;BME280;12223;42.650;23.364;2023-02-11T11:03:05;96087.00;;;3.15;41.04
11099;BME280;12223;42.650;23.364;2023-02-11T11:05:45;96092.47;;;3.21;41.71
11099;BME280;12223;42.650;23.364;2023-02-11T11:08:14;96091.69;;;3.48;40.96
11099;BME280;12223;42.650;23.364;2023-02-11T11:10:43;96085.16;;;3.35;39.69
11099;BME280;12223;42.650;23.364;2023-02-11T11:13:29;96096.69;;;2.76;40.40
11099;BME280;12223;42.650;23.364;2023-02-11T11:16:08;96094.75;;;2.49;41.46
11099;BME280;12223;42.650;23.364;2023-02-11T11:18:35;96090.09;;;2.24;42.11
11099;BME280;12223;42.650;23.364;2023-02-11T11:21:05;96079.78;;;2.61;41.70
11099;BME280;12223;42.650;23.364;2023-02-11T11:23:36;96081.16;;;2.74;40.37
11099;BME280;12223;42.650;23.364;2023-02-11T11:26:05;96080.72;;;2.89;40.62
11099;BME280;12223;42.650;23.364;2023-02-11T11:28:37;96079.31;;;3.04;40.85
11099;BME280;12223;42.650;23.364;2023-02-11T11:31:11;96074.94;;;2.95;41.12
11099;BME280;12223;42.650;23.364;2023-02-11T11:33:41;96054.53;;;2.61;41.06
11099;BME280;12223;42.650;23.364;2023-02-11T11:36:10;96072.41;;;2.56;41.86
11099;BME280;12223;42.650;23.364;2023-02-11T11:38:45;96063.31;;;2.70;42.17
11099;BME280;12223;42.650;23.364;2023-02-11T11:41:21;96061.03;;;3.04;41.60
11099;BME280;12223;42.650;23.364;2023-02-11T11:44:00;96060.81;;;2.88;41.28
11099;BME280;12223;42.650;23.364;2023-02-11T11:46:30;96058.91;;;2.90;40.68
11099;BME280;12223;42.650;23.364;2023-02-11T11:49:08;96047.53;;;2.71;41.04
11099;BME280;12223;42.650;23.364;2023-02-11T11:51:40;96055.72;;;2.86;41.33
11099;BME280;12223;42.650;23.364;2023-02-11T11:54:11;96047.66;;;3.26;41.10
11099;BME280;12223;42.650;23.364;2023-02-11T11:56:45;96047.00;;;3.51;40.17
11099;BME280;12223;42.650;23.364;2023-02-11T11:59:15;96049.06;;;3.75;40.56
11099;BME280;12223;42.650;23.364;2023-02-11T12:01:56;96038.50;;;3.94;40.06
11099;BME280;12223;42.650;23.364;2023-02-11T12:04:47;96038.50;;;3.12;40.58
11099;BME280;12223;42.650;23.364;2023-02-11T12:07:30;96032.56;;;3.20;40.34
11099;BME280;12223;42.650;23.364;2023-02-11T12:10:33;96029.81;;;3.21;40.65
11099;BME280;12223;42.650;23.364;2023-02-11T12:13:11;96018.38;;;2.86;40.64
11099;BME280;12223;42.650;23.364;2023-02-11T12:15:44;96005.72;;;3.00;40.87
11099;BME280;12223;42.650;23.364;2023-02-11T12:18:25;96011.72;;;3.10;41.21
11099;BME280;12223;42.650;23.364;2023-02-11T12:21:21;96006.72;;;3.27;41.03
11099;BME280;12223;42.650;23.364;2023-02-11T12:24:11;96012.13;;;3.43;40.52
11099;BME280;12223;42.650;23.364;2023-02-11T12:26:46;95987.63;;;3.26;40.78
11099;BME280;12223;42.650;23.364;2023-02-11T12:29:22;95994.13;;;3.67;41.06
11099;BME280;12223;42.650;23.364;2023-02-11T12:32:12;95984.06;;;3.90;40.98
11099;BME280;12223;42.650;23.364;2023-02-11T12:34:55;95986.69;;;3.72;39.74
11099;BME280;12223;42.650;23.364;2023-02-11T12:37:33;95979.13;;;3.87;40.40
11099;BME280;12223;42.650;23.364;2023-02-11T12:40:13;95984.81;;;3.82;39.50
11099;BME280;12223;42.650;23.364;2023-02-11T12:43:03;95976.75;;;4.11;39.10
11099;BME280;12223;42.650;23.364;2023-02-11T12:46:01;95944.19;;;4.23;38.01
11099;BME280;12223;42.650;23.364;2023-02-11T12:51:43;95940.47;;;3.90;37.32
11099;BME280;12223;42.650;23.364;2023-02-11T12:54:19;95958.66;;;3.64;38.08
11099;BME280;12223;42.650;23.364;2023-02-11T12:56:54;95967.34;;;3.38;38.66
11099;BME280;12223;42.650;23.364;2023-02-11T12:59:47;95960.72;;;3.43;37.83
11099;BME280;12223;42.650;23.364;2023-02-11T13:02:25;95954.03;;;3.58;38.41
11099;BME280;12223;42.650;23.364;2023-02-11T13:04:57;95962.56;;;3.96;38.53
11099;BME280;12223;42.650;23.364;2023-02-11T13:07:29;95955.91;;;4.19;37.37
11099;BME280;12223;42.650;23.364;2023-02-11T13:10:02;95951.44;;;4.29;36.67
11099;BME280;12223;42.650;23.364;2023-02-11T13:12:32;95947.13;;;4.46;36.97
11099;BME280;12223;42.650;23.364;2023-02-11T13:15:19;95942.16;;;4.61;37.66
11099;BME280;12223;42.650;23.364;2023-02-11T13:17:54;95936.03;;;4.78;36.45
11099;BME280;12223;42.650;23.364;2023-02-11T13:20:34;95942.31;;;4.85;36.79
11099;BME280;12223;42.650;23.364;2023-02-11T13:23:10;95930.88;;;4.94;36.48
11099;BME280;12223;42.650;23.364;2023-02-11T13:25:43;95947.59;;;4.67;35.56
11099;BME280;12223;42.650;23.364;2023-02-11T13:28:24;95936.56;;;4.12;36.69